createdAt,value
2022-11-04T00:00:34.336Z,3.97
2022-11-04T00:04:36.564Z,4.63
2022-11-04T00:08:38.606Z,4.03
2022-11-04T00:12:40.595Z,4.05
2022-11-04T00:17:00.977Z,4.03
2022-11-04T00:21:22.164Z,4.47
2022-11-04T00:25:42.826Z,4.28
2022-11-04T00:29:44.853Z,4.43
2022-11-04T00:33:48.901Z,4.68
2022-11-04T00:37:50.949Z,5.63
2022-11-04T00:41:52.879Z,5.20
2022-11-04T00:45:55.152Z,5.07
2022-11-04T00:49:57.256Z,5.32
2022-11-04T00:53:59.407Z,5.85
2022-11-04T00:58:02.694Z,5.80
2022-11-04T01:02:04.992Z,6.80
2022-11-04T01:11:55.679Z,4.10
2022-11-04T02:05:49.314Z,3.40
2022-11-04T02:09:51.792Z,3.55
2022-11-04T02:13:53.743Z,2.75
2022-11-04T02:18:02.099Z,3.03
2022-11-04T02:22:21.193Z,2.80
2022-11-04T02:26:41.905Z,2.45
2022-11-04T02:31:03.219Z,2.35
2022-11-04T02:35:27.015Z,2.42
2022-11-04T02:39:55.744Z,2.47
2022-11-04T02:44:16.489Z,2.53
2022-11-04T02:48:38.581Z,3.50
2022-11-04T02:52:53.733Z,2.83
2022-11-04T02:56:59.388Z,3.20
2022-11-04T03:01:05.610Z,3.33
2022-11-04T03:05:12.845Z,3.30
2022-11-04T03:09:16.911Z,2.85
2022-11-04T03:13:29.629Z,2.75
2022-11-04T03:17:39.517Z,2.20
2022-11-04T03:21:50.426Z,1.77
2022-11-04T03:25:58.681Z,1.60
2022-11-04T03:30:14.953Z,1.80
2022-11-04T03:34:17.024Z,1.67
2022-11-04T03:38:20.001Z,1.60
2022-11-04T03:42:23.684Z,2.22
2022-11-04T03:46:26.218Z,2.30
2022-11-04T03:50:34.101Z,2.30
2022-11-04T03:54:38.829Z,2.38
2022-11-04T03:59:48.814Z,3.88
2022-11-04T04:04:07.897Z,3.63
2022-11-04T04:08:40.889Z,3.20
2022-11-04T04:12:43.362Z,2.92
2022-11-04T04:16:48.505Z,2.13
2022-11-04T04:20:54.603Z,2.03
2022-11-04T04:25:18.212Z,1.60
2022-11-04T04:29:22.498Z,1.50
2022-11-04T04:37:27.984Z,1.45
2022-11-04T04:41:50.516Z,1.93
2022-11-04T04:45:55.742Z,1.52
2022-11-04T04:50:01.784Z,2.40
2022-11-04T04:54:04.360Z,2.15
2022-11-04T04:58:06.436Z,2.53
2022-11-04T05:02:08.793Z,2.20
2022-11-04T05:06:10.951Z,2.13
2022-11-04T05:10:15.679Z,2.20
2022-11-04T05:14:17.749Z,2.42
2022-11-04T05:18:20.606Z,2.22
2022-11-04T05:22:22.606Z,2.47
2022-11-04T05:26:24.683Z,2.33
2022-11-04T05:30:26.622Z,2.15
2022-11-04T05:34:28.984Z,2.05
2022-11-04T05:38:31.603Z,2.08
2022-11-04T05:42:33.875Z,2.50
2022-11-04T05:46:35.863Z,2.30
2022-11-04T05:50:38.762Z,3.00
2022-11-04T05:54:41.454Z,2.92
2022-11-04T05:58:43.436Z,2.95
2022-11-04T06:02:45.506Z,3.35
2022-11-04T06:06:47.665Z,3.47
2022-11-04T06:10:49.648Z,3.85
2022-11-04T06:19:43.770Z,3.90
2022-11-04T06:23:46.041Z,4.07
2022-11-04T06:27:48.198Z,4.80
2022-11-04T06:31:50.151Z,4.43
2022-11-04T06:35:52.352Z,5.57
2022-11-04T06:39:54.308Z,5.45
2022-11-04T06:43:56.219Z,6.05
2022-11-04T06:47:58.600Z,6.13
2022-11-04T06:52:02.522Z,6.72
2022-11-04T06:56:06.322Z,6.20
2022-11-04T07:00:09.895Z,6.28
2022-11-04T07:04:12.223Z,5.88
2022-11-04T07:08:14.385Z,6.15
2022-11-04T07:12:16.693Z,4.57
2022-11-04T07:16:19.303Z,4.57
2022-11-04T07:20:21.275Z,5.72
2022-11-04T07:24:23.644Z,4.50
2022-11-04T07:28:25.565Z,5.13
2022-11-04T07:32:27.669Z,4.53
2022-11-04T07:36:30.194Z,4.75
2022-11-04T07:40:34.529Z,4.85
2022-11-04T07:44:36.505Z,4.82
2022-11-04T07:48:38.957Z,4.45
2022-11-04T07:52:40.969Z,4.47
2022-11-04T07:56:43.052Z,4.82
2022-11-04T08:00:45.162Z,4.65
2022-11-04T08:04:47.145Z,4.40
2022-11-04T08:08:49.383Z,4.88
2022-11-04T08:12:52.626Z,4.35
2022-11-04T08:16:55.004Z,3.47
2022-11-04T08:20:56.985Z,2.90
2022-11-04T08:24:59.153Z,3.15
2022-11-04T08:29:02.542Z,4.15
2022-11-04T08:33:05.617Z,3.63
2022-11-04T08:37:08.004Z,3.30
2022-11-04T08:41:11.963Z,2.58
2022-11-04T08:45:13.935Z,2.70
2022-11-04T08:49:20.631Z,3.15
2022-11-04T08:53:23.350Z,2.85
2022-11-04T08:57:25.458Z,2.15
2022-11-04T09:01:32.767Z,1.90
2022-11-04T09:05:47.425Z,2.20
2022-11-04T09:09:49.469Z,1.88
2022-11-04T09:13:51.520Z,1.73
2022-11-04T09:17:53.519Z,1.90
2022-11-04T09:21:55.485Z,1.98
2022-11-04T09:26:02.962Z,2.78
2022-11-04T09:30:05.506Z,2.03
2022-11-04T09:34:07.777Z,2.25
2022-11-04T09:38:09.797Z,1.70
2022-11-04T09:42:40.871Z,1.67
2022-11-04T09:46:44.753Z,1.10
2022-11-04T09:51:00.031Z,1.45
2022-11-04T09:55:12.003Z,1.92
2022-11-04T09:59:31.392Z,2.10
2022-11-04T10:04:01.691Z,1.08
2022-11-04T10:08:37.555Z,1.30
2022-11-04T10:12:42.947Z,1.75
2022-11-04T10:16:45.036Z,1.48
2022-11-04T10:20:56.312Z,1.33
2022-11-04T10:25:14.644Z,1.50
2022-11-04T10:29:23.358Z,1.80
2022-11-04T10:33:43.247Z,1.55
2022-11-04T10:37:51.602Z,1.63
2022-11-04T10:41:53.789Z,2.00
2022-11-04T10:46:37.182Z,1.52
2022-11-04T10:50:56.312Z,1.00
2022-11-04T10:54:58.431Z,1.50
2022-11-04T10:59:26.881Z,1.20
2022-11-04T11:03:34.528Z,1.20
2022-11-04T11:07:37.235Z,1.45
2022-11-04T11:11:51.457Z,1.33
2022-11-04T11:16:19.652Z,1.20
2022-11-04T11:20:24.356Z,1.83
2022-11-04T11:24:30.878Z,1.30
2022-11-04T11:28:38.236Z,1.35
2022-11-04T11:32:44.368Z,1.80
2022-11-04T11:36:48.371Z,1.42
2022-11-04T11:41:23.350Z,1.60
2022-11-04T11:45:23.602Z,1.42
2022-11-04T11:49:31.690Z,1.65
2022-11-04T11:53:38.250Z,1.70
2022-11-04T11:57:46.466Z,1.35
2022-11-04T12:01:55.876Z,1.65
2022-11-04T12:06:18.952Z,1.38
2022-11-04T12:10:55.354Z,2.25
2022-11-04T12:15:18.913Z,2.25
2022-11-04T12:19:33.203Z,1.80
2022-11-04T12:23:44.569Z,1.35
2022-11-04T12:28:27.571Z,1.58
2022-11-04T12:33:03.677Z,1.38
2022-11-04T12:37:27.747Z,1.20
2022-11-04T12:42:20.535Z,1.40
2022-11-04T12:46:21.765Z,1.27
2022-11-04T12:51:12.173Z,1.40
2022-11-04T12:55:43.834Z,1.42
2022-11-04T13:00:08.410Z,1.95
2022-11-04T13:04:15.588Z,1.02
2022-11-04T13:08:43.101Z,1.90
2022-11-04T13:12:47.738Z,1.35
2022-11-04T13:16:53.421Z,1.52
2022-11-04T13:21:10.600Z,1.17
2022-11-04T13:25:30.635Z,1.10
2022-11-04T13:29:34.836Z,1.10
2022-11-04T13:34:07.515Z,1.05
2022-11-04T13:38:15.388Z,1.38
2022-11-04T13:42:32.766Z,1.40
2022-11-04T13:46:35.451Z,1.10
2022-11-04T13:50:40.022Z,1.17
2022-11-04T13:54:47.008Z,1.38
2022-11-04T13:58:53.472Z,1.33
2022-11-04T14:02:58.526Z,1.40
2022-11-04T14:07:08.824Z,1.58
2022-11-04T14:11:12.838Z,1.08
2022-11-04T14:15:17.378Z,1.65
2022-11-04T14:19:56.015Z,1.50
2022-11-04T14:24:16.309Z,1.50
2022-11-04T14:28:27.607Z,1.77
2022-11-04T14:32:36.110Z,1.80
2022-11-04T14:36:41.769Z,1.55
2022-11-04T14:40:50.817Z,1.40
2022-11-04T14:44:53.265Z,1.55
2022-11-04T14:49:01.178Z,1.48
2022-11-04T14:53:08.847Z,1.20
2022-11-04T14:57:17.290Z,1.30
2022-11-04T15:01:19.684Z,1.52
2022-11-04T15:05:29.130Z,3.10
2022-11-04T15:09:40.354Z,1.85
2022-11-04T15:13:51.067Z,1.15
2022-11-04T15:17:58.752Z,2.13
2022-11-04T15:22:03.580Z,2.40
2022-11-04T15:26:07.072Z,1.50
2022-11-04T15:30:29.737Z,1.42
2022-11-04T15:34:37.966Z,1.92
2022-11-04T15:38:45.673Z,1.63
2022-11-04T15:42:49.918Z,1.65
2022-11-04T15:46:54.909Z,1.30
2022-11-04T15:51:18.794Z,1.63
2022-11-04T15:55:23.914Z,1.30
2022-11-04T15:59:32.843Z,1.20
2022-11-04T16:03:34.984Z,1.88
2022-11-04T16:07:42.150Z,1.42
2022-11-04T16:12:08.113Z,1.70
2022-11-04T16:16:16.284Z,1.75
2022-11-04T16:20:18.448Z,2.03
2022-11-04T16:24:30.649Z,1.60
2022-11-04T16:28:37.675Z,2.38
2022-11-04T16:32:45.196Z,3.10
2022-11-04T16:36:47.152Z,1.73
2022-11-04T16:40:50.392Z,3.47
2022-11-04T16:44:59.125Z,1.77
2022-11-04T16:49:01.284Z,1.80
2022-11-04T16:53:03.855Z,1.65
2022-11-04T16:57:11.831Z,2.20
2022-11-04T17:01:15.289Z,2.42
2022-11-04T17:05:18.315Z,2.67
2022-11-04T17:09:23.185Z,2.10
2022-11-04T17:13:25.619Z,2.38
2022-11-04T17:17:27.573Z,2.22
2022-11-04T17:21:29.680Z,2.03
2022-11-04T17:25:31.645Z,3.00
2022-11-04T17:29:33.931Z,2.80
2022-11-04T17:33:35.955Z,2.80
2022-11-04T17:37:38.278Z,4.15
2022-11-04T17:41:58.888Z,3.72
2022-11-04T17:46:21.183Z,2.72
2022-11-04T17:50:23.381Z,1.75
2022-11-04T17:54:28.577Z,2.38
2022-11-04T17:58:30.663Z,1.98
2022-11-04T18:02:33.173Z,3.90
2022-11-04T18:06:37.748Z,7.15
2022-11-04T18:10:41.768Z,5.22
2022-11-04T18:14:43.882Z,6.00
2022-11-04T18:18:45.853Z,3.08
2022-11-04T18:22:48.233Z,4.15
2022-11-04T18:26:50.824Z,4.25
2022-11-04T18:30:53.464Z,4.53
2022-11-04T18:34:55.430Z,3.67
2022-11-04T18:38:57.635Z,3.75
2022-11-04T18:43:07.650Z,9.85
2022-11-04T18:47:11.193Z,8.07
2022-11-04T18:51:13.828Z,3.88
2022-11-04T18:55:15.802Z,4.82
2022-11-04T18:59:17.874Z,3.95
2022-11-04T19:03:21.119Z,2.72
2022-11-04T19:07:23.107Z,3.50
2022-11-04T19:11:28.955Z,2.70
2022-11-04T19:15:31.018Z,3.60
2022-11-04T19:19:33.025Z,3.72
2022-11-04T19:23:35.629Z,3.42
2022-11-04T19:27:37.607Z,3.42
2022-11-04T19:31:40.233Z,3.50
2022-11-04T19:35:44.507Z,3.63
2022-11-04T19:39:46.945Z,4.20
2022-11-04T19:43:48.903Z,4.47
2022-11-04T19:47:51.080Z,3.65
2022-11-04T19:51:53.027Z,2.85
2022-11-04T19:55:55.582Z,3.40
2022-11-04T19:59:57.513Z,3.92
2022-11-04T20:04:00.155Z,4.47
2022-11-04T20:08:06.043Z,3.55
2022-11-04T20:12:26.877Z,3.38
2022-11-04T20:16:31.217Z,4.05
2022-11-04T20:20:33.352Z,4.65
2022-11-04T20:24:36.961Z,4.07
2022-11-04T20:28:39.837Z,3.40
2022-11-04T20:32:41.783Z,3.13
2022-11-04T20:36:43.780Z,2.47
2022-11-04T20:40:47.657Z,3.28
2022-11-04T20:44:50.959Z,2.60
2022-11-04T20:48:53.464Z,2.17
2022-11-04T20:52:55.500Z,2.55
2022-11-04T20:56:58.140Z,2.33
2022-11-04T21:01:02.417Z,2.75
2022-11-04T21:05:04.702Z,4.57
2022-11-04T21:09:09.593Z,3.42
2022-11-04T21:13:11.672Z,4.88
2022-11-04T21:17:14.807Z,4.38
2022-11-04T21:21:17.310Z,4.80
2022-11-04T21:25:19.366Z,5.40
2022-11-04T21:29:21.393Z,6.43
2022-11-04T21:33:23.390Z,6.25
2022-11-04T21:37:25.434Z,5.72
2022-11-04T21:41:29.935Z,5.25
2022-11-04T21:49:34.434Z,6.18
2022-11-04T21:53:36.749Z,6.13
2022-11-04T21:57:39.103Z,7.57
2022-11-04T22:01:41.351Z,5.88
2022-11-04T22:05:43.373Z,6.72
2022-11-04T22:09:45.540Z,6.97
2022-11-04T22:13:47.676Z,6.00
2022-11-04T22:17:49.704Z,6.43
2022-11-04T22:21:51.658Z,5.38
2022-11-04T22:25:59.395Z,5.35
2022-11-04T22:30:01.345Z,6.00
2022-11-04T22:34:05.401Z,5.95
2022-11-04T22:38:07.422Z,55.55
2022-11-04T22:42:10.060Z,42.58
2022-11-04T22:46:13.842Z,17.75
2022-11-04T22:50:16.308Z,6.60
2022-11-04T22:54:18.781Z,4.85
2022-11-04T22:58:20.881Z,5.10
2022-11-04T23:02:23.267Z,4.93
2022-11-04T23:06:25.617Z,4.53
2022-11-04T23:10:47.267Z,4.15
2022-11-04T23:15:07.853Z,4.10
2022-11-04T23:19:09.858Z,3.95
2022-11-04T23:23:30.685Z,3.58
2022-11-04T23:28:01.816Z,3.17
2022-11-04T23:32:04.146Z,3.28
2022-11-04T23:36:24.658Z,2.85
2022-11-04T23:40:27.761Z,3.00
2022-11-04T23:44:48.364Z,3.58
2022-11-04T23:49:26.675Z,3.30
2022-11-04T23:53:47.670Z,3.22
2022-11-04T23:58:08.448Z,2.65
